« Back
NWS Peachtree City, Ga » Text Product » CSG Terminal Aerodrome Forecast


Printer-friendly Version
Current Version              Previous Versions:   1  2  3  4  5  6  7  8  9  

Terminal Aerodrome Forecast

115
FTUS42 KFFC 262341
TAFCSG
TAF
KCSG 262341Z 2700/2724 28006KT P6SM FEW100
     FM270300 25006KT P6SM BKN050
     FM271000 29008KT P6SM BKN030
     FM271300 31010KT P6SM BKN020
     FM271700 31012G22KT P6SM BKN035
     FM272000 31012G20KT P6SM SCT040=



USA.gov is the U.S. government's official web portal to all federal, state and local government web resources and services.